KFSM/FSM METAR and TAF weather

Enter ICAO airport designator
Station Type Date Time Source
KFSM METAR 2021/07/26 15:53 UTC NOAA

KFSM 261553Z 11003KT 10SM CLR 32/25 A2998 RMK AO2 SLP145 T03220250


Station Type Date Time Source
KFSM Decoded METAR 2021/07/26 15:53 UTC NOAA

FORT SMITH REGIONAL AIRPORT, AR, United States (KFSM) 35-20N 94-22W 140M
Jul 26, 2021 - 11:53 AM EDT / 2021.07.26 1553 UTC
Wind: from the ESE (110 degrees) at 3 MPH (3 KT):0
Visibility: 10 mile(s):0
Sky conditions: clear
Temperature: 90.0 F (32.2 C)
Heat index: 102.7 F (39.3 C):1
Dew Point: 77.0 F (25.0 C)
Relative Humidity: 65%
Pressure (altimeter): 29.98 in. Hg (1015 hPa)
ob: KFSM 261553Z 11003KT 10SM CLR 32/25 A2998 RMK AO2 SLP145 T03220250
cycle: 16

Station Type Date Time Source
KFSM TAF 2021/07/26 12:22 UTC NOAA

TAF KFSM 261120Z 2612/2712 00000KT P6SM SCT250
FM261500 06005KT P6SM SCT060 PROB30 2621/2624 4SM TSRA BKN050CB
FM270200 09003KT P6SM SCT100

Example: see airport list